Aggieland, Texas
Current Conditions -  °F | °C
As of 6:53 AM on Sunday 23 Nov 2014 (Local Time) from KCLL Reporting Station
Overcast Overcast  
Wind Chill: 15°   Ceiling: 800
Heat Index: 15°   Visibility: 10mi
Dew Point: 14°   Wind: 12mph
Humidity: 96%   Direction: 240°WSW
Pressure: 29.66"   Gusts: NA
Location:  30.5943°N, 96.3574°W
Report Text: KCLL 231253Z AUTO 24010KT 10SM OVC008 15/14 A2966 RMK AO2 CIG 005V010 SLP040 T01500144 $
Loading
Personal Weather Stations






























Interactive Weather Map New forecast layout! Learn more

10-Day Weather Forecast

Advertisements
Track Severe Weather on mobile